Startpagina
METAR-TAF:

METAR-TAF

Vliegvelden :

Penrhyn, Cookeilanden

breedte: 9-00-52S, lengte: 158-01-57W, hoogte: 2 m

Actueel weer

Dit bericht is 42 minuten geleden gemaakt, om 19:00 UTC
Wind 1 kt uit het noordnoordoosten
Temperatuur 28°C
Vochtigheid 70%
Druk 1009 hPa

METAR: NCPY 121900Z AUTO 03001KT //// ////// 28/22 Q1009

Tijdstip: 09:42 (19:42 UTC)


TAF: ontbreekt

Waarnemingen en weersverwachtingen van meer dan 4000 vliegvelden (METAR en TAF).

De beschikbare stations zijn de gele en rode punten op de kaart.

Ga met uw muis naar het station om de naam te zien.

Klik dan om waarnemingen en weersverwachtingen te zien.

kaart wijzigen: klik op de groene knoppen met een zwart kruis om in te zoomen, op de groene knop met een streepje om uit te zoomen of op de groene pijlen voor aangrenzende kaarten.


METAR-TAF: